Orion Explorer — LNDT — position and weather

sailwx.info

Track history (hours):
 
Tides and Currents Weather Stations Pressure Air Temp Water Temp Dewpoint Dewpoint Depression Visibility Wind Speed Wind Dir Waves Ship Positions

Orion Explorer

Last reported at 2015-Mar-01 10:33 UTC. Time now 2015-Mar-01 11:00 UTC.
Position N 69°39' E 018°58'.

Length 59 m; draft 4.5 m.

Type: Cargo ship. MMSI: 259496000.

Date/timePositionNaut miles runAvg speedWind from/ knotsBaromVisibWave heightAir tempDewpointWater temp
2015-Mar-01 10:33N 69°39' E 018°58'0 0.0
2015-Mar-01 09:33N 69°39' E 018°58'0 0.0
2015-Mar-01 08:33N 69°39' E 018°58'0 0.0
2015-Mar-01 07:34N 69°39' E 018°58'0 0.0
2015-Mar-01 06:34N 69°39' E 018°58'0 0.0
2015-Mar-01 05:34N 69°39' E 018°58'0 0.0
2015-Mar-01 04:33N 69°39' E 018°58'0 0.0
2015-Mar-01 03:34N 69°39' E 018°58'0 0.0
2015-Mar-01 02:33N 69°39' E 018°58'0 0.0
2015-Mar-01 01:33N 69°39' E 018°58'0 0.0
2015-Mar-01 00:34N 69°39' E 018°58'0 0.0
2015-Feb-28 23:34N 69°39' E 018°58'0 0.0
2015-Feb-28 22:34N 69°39' E 018°58'0 0.0
2015-Feb-28 21:34N 69°39' E 018°58'0 0.0
2015-Feb-28 20:34N 69°39' E 018°58'3 3.5
2015-Feb-28 19:34N 69°42' E 019°02'9310.3
2015-Feb-28 10:33N 70°31' E 022°55'1010.3
2015-Feb-28 09:33N 70°38' E 023°18'1010.0
2015-Feb-28 08:32N 70°45' E 023°39'2 0.0
2015-Feb-26 08:09N 70°44' E 023°36'611.0
2015-Feb-26 07:33N 70°38' E 023°35'5 5.3
2015-Feb-26 06:33N 70°32' E 023°33'6 6.3
2015-Feb-26 05:34N 70°38' E 023°25'7 7.2
2015-Feb-26 04:33N 70°32' E 023°14'5 4.8
2015-Feb-26 03:33N 70°31' E 023°00'94 3.8
2015-Feb-25 02:34N 69°42' E 019°04'7 6.6
2015-Feb-25 01:33N 69°36' E 018°53'  
2015-Feb-22 15:30N 69°33' E 018°45'7 7.3
2015-Feb-22 14:34N 69°39' E 018°57'0 0.0
2015-Feb-22 13:33N 69°39' E 018°57'0 0.0
2015-Feb-22 12:34N 69°39' E 018°57'0 0.0
2015-Feb-22 11:34N 69°39' E 018°57'0 0.0
2015-Feb-22 10:33N 69°39' E 018°57'0 0.0
2015-Feb-22 09:34N 69°39' E 018°57'0 0.0
2015-Feb-22 08:34N 69°39' E 018°57'0 0.0
2015-Feb-22 07:34N 69°39' E 018°57'0 0.0
2015-Feb-22 06:34N 69°39' E 018°57'0 0.0
2015-Feb-22 05:33N 69°39' E 018°57'0 0.0
2015-Feb-22 04:34N 69°39' E 018°57'0 0.0
2015-Feb-22 03:34N 69°39' E 018°57'0 0.0
2015-Feb-22 02:33N 69°39' E 018°57'0 0.0
2015-Feb-22 01:34N 69°39' E 018°57'0 0.0
2015-Feb-22 00:34N 69°39' E 018°57'0 0.0
2015-Feb-21 23:34N 69°39' E 018°57'0 0.0
2015-Feb-21 22:34N 69°39' E 018°57'0 0.0
2015-Feb-21 21:34N 69°39' E 018°57'0 0.0
2015-Feb-21 20:33N 69°39' E 018°57'0 0.0
2015-Feb-21 19:34N 69°39' E 018°57'0 0.0
2015-Feb-21 18:34N 69°39' E 018°57'0 0.0
2015-Feb-21 17:33N 69°39' E 018°57'0 0.0
2015-Feb-21 16:34N 69°39' E 018°57'0 0.0
2015-Feb-21 15:34N 69°39' E 018°57'0 0.0
2015-Feb-21 14:34N 69°39' E 018°57'0 0.0
2015-Feb-21 13:34N 69°39' E 018°57'0 0.0
2015-Feb-21 12:34N 69°39' E 018°57'0 0.0
2015-Feb-21 11:34N 69°39' E 018°57'0 0.0
2015-Feb-21 10:33N 69°39' E 018°57'0 0.0
2015-Feb-21 09:33N 69°39' E 018°57'0 0.0
2015-Feb-21 08:34N 69°39' E 018°57'0 0.0
2015-Feb-21 07:34N 69°39' E 018°57'0 0.0
2015-Feb-21 06:34N 69°39' E 018°57'0 0.0
2015-Feb-21 05:33N 69°39' E 018°57'0 0.0
2015-Feb-21 04:33N 69°39' E 018°57'0 0.0
2015-Feb-21 03:33N 69°39' E 018°57'0 0.0
2015-Feb-21 02:33N 69°39' E 018°57'0 0.0
2015-Feb-21 01:33N 69°39' E 018°57'0 0.0
2015-Feb-21 00:34N 69°39' E 018°57'0 0.0
2015-Feb-20 23:33N 69°39' E 018°57'0 0.0
2015-Feb-20 22:33N 69°39' E 018°57'0 0.0
2015-Feb-20 21:33N 69°39' E 018°57'0 0.0
2015-Feb-20 20:34N 69°39' E 018°57'0 0.0
2015-Feb-20 19:33N 69°39' E 018°57'0 0.0
2015-Feb-20 18:34N 69°39' E 018°57'0 0.0
2015-Feb-20 17:34N 69°39' E 018°57'0 0.0
2015-Feb-20 16:34N 69°39' E 018°57'0 0.0
2015-Feb-20 15:34N 69°39' E 018°57'0 0.0
2015-Feb-20 14:34N 69°39' E 018°57'4 3.8
2015-Feb-20 13:30N 69°42' E 019°05'0 0.0
2015-Feb-20 12:33N 69°42' E 019°05'  
Track history (hours):
 
Tides and Currents Weather Stations Pressure Air Temp Water Temp Dewpoint Dewpoint Depression Visibility Wind Speed Wind Dir Waves Ship Positions

Orion Explorer

Last reported at 2015-Mar-01 10:33 UTC. Time now 2015-Mar-01 11:00 UTC.
Position N 69°39' E 018°58'.

Length 59 m; draft 4.5 m.

Type: Cargo ship. MMSI: 259496000.

Date/timePositionNaut miles runAvg speedWind from/ knotsBaromVisibWave heightAir tempDewpointWater temp
2015-Mar-01 10:33N 69°39' E 018°58'0 0.0
2015-Mar-01 09:33N 69°39' E 018°58'0 0.0
2015-Mar-01 08:33N 69°39' E 018°58'0 0.0
2015-Mar-01 07:34N 69°39' E 018°58'0 0.0
2015-Mar-01 06:34N 69°39' E 018°58'0 0.0
2015-Mar-01 05:34N 69°39' E 018°58'0 0.0
2015-Mar-01 04:33N 69°39' E 018°58'0 0.0
2015-Mar-01 03:34N 69°39' E 018°58'0 0.0
2015-Mar-01 02:33N 69°39' E 018°58'0 0.0
2015-Mar-01 01:33N 69°39' E 018°58'0 0.0
2015-Mar-01 00:34N 69°39' E 018°58'0 0.0
2015-Feb-28 23:34N 69°39' E 018°58'0 0.0
2015-Feb-28 22:34N 69°39' E 018°58'0 0.0
2015-Feb-28 21:34N 69°39' E 018°58'0 0.0
2015-Feb-28 20:34N 69°39' E 018°58'3 3.5
2015-Feb-28 19:34N 69°42' E 019°02'9310.3
2015-Feb-28 10:33N 70°31' E 022°55'1010.3
2015-Feb-28 09:33N 70°38' E 023°18'1010.0
2015-Feb-28 08:32N 70°45' E 023°39'2 0.0
2015-Feb-26 08:09N 70°44' E 023°36'611.0
2015-Feb-26 07:33N 70°38' E 023°35'5 5.3
2015-Feb-26 06:33N 70°32' E 023°33'6 6.3
2015-Feb-26 05:34N 70°38' E 023°25'7 7.2
2015-Feb-26 04:33N 70°32' E 023°14'5 4.8
2015-Feb-26 03:33N 70°31' E 023°00'94 3.8
2015-Feb-25 02:34N 69°42' E 019°04'7 6.6
2015-Feb-25 01:33N 69°36' E 018°53'  
2015-Feb-22 15:30N 69°33' E 018°45'7 7.3
2015-Feb-22 14:34N 69°39' E 018°57'0 0.0
2015-Feb-22 13:33N 69°39' E 018°57'0 0.0
2015-Feb-22 12:34N 69°39' E 018°57'0 0.0
2015-Feb-22 11:34N 69°39' E 018°57'0 0.0
2015-Feb-22 10:33N 69°39' E 018°57'0 0.0
2015-Feb-22 09:34N 69°39' E 018°57'0 0.0
2015-Feb-22 08:34N 69°39' E 018°57'0 0.0
2015-Feb-22 07:34N 69°39' E 018°57'0 0.0
2015-Feb-22 06:34N 69°39' E 018°57'0 0.0
2015-Feb-22 05:33N 69°39' E 018°57'0 0.0
2015-Feb-22 04:34N 69°39' E 018°57'0 0.0
2015-Feb-22 03:34N 69°39' E 018°57'0 0.0
2015-Feb-22 02:33N 69°39' E 018°57'0 0.0
2015-Feb-22 01:34N 69°39' E 018°57'0 0.0
2015-Feb-22 00:34N 69°39' E 018°57'0 0.0
2015-Feb-21 23:34N 69°39' E 018°57'0 0.0
2015-Feb-21 22:34N 69°39' E 018°57'0 0.0
2015-Feb-21 21:34N 69°39' E 018°57'0 0.0
2015-Feb-21 20:33N 69°39' E 018°57'0 0.0
2015-Feb-21 19:34N 69°39' E 018°57'0 0.0
2015-Feb-21 18:34N 69°39' E 018°57'0 0.0
2015-Feb-21 17:33N 69°39' E 018°57'0 0.0
2015-Feb-21 16:34N 69°39' E 018°57'0 0.0
2015-Feb-21 15:34N 69°39' E 018°57'0 0.0
2015-Feb-21 14:34N 69°39' E 018°57'0 0.0
2015-Feb-21 13:34N 69°39' E 018°57'0 0.0
2015-Feb-21 12:34N 69°39' E 018°57'0 0.0
2015-Feb-21 11:34N 69°39' E 018°57'0 0.0
2015-Feb-21 10:33N 69°39' E 018°57'0 0.0
2015-Feb-21 09:33N 69°39' E 018°57'0 0.0
2015-Feb-21 08:34N 69°39' E 018°57'0 0.0
2015-Feb-21 07:34N 69°39' E 018°57'0 0.0
2015-Feb-21 06:34N 69°39' E 018°57'0 0.0
2015-Feb-21 05:33N 69°39' E 018°57'0 0.0
2015-Feb-21 04:33N 69°39' E 018°57'0 0.0
2015-Feb-21 03:33N 69°39' E 018°57'0 0.0
2015-Feb-21 02:33N 69°39' E 018°57'0 0.0
2015-Feb-21 01:33N 69°39' E 018°57'0 0.0
2015-Feb-21 00:34N 69°39' E 018°57'0 0.0
2015-Feb-20 23:33N 69°39' E 018°57'0 0.0
2015-Feb-20 22:33N 69°39' E 018°57'0 0.0
2015-Feb-20 21:33N 69°39' E 018°57'0 0.0
2015-Feb-20 20:34N 69°39' E 018°57'0 0.0
2015-Feb-20 19:33N 69°39' E 018°57'0 0.0
2015-Feb-20 18:34N 69°39' E 018°57'0 0.0
2015-Feb-20 17:34N 69°39' E 018°57'0 0.0
2015-Feb-20 16:34N 69°39' E 018°57'0 0.0
2015-Feb-20 15:34N 69°39' E 018°57'0 0.0
2015-Feb-20 14:34N 69°39' E 018°57'4 3.8
2015-Feb-20 13:30N 69°42' E 019°05'0 0.0
2015-Feb-20 12:33N 69°42' E 019°05'  

Dump ship's entire track history